Time;durP1;ratioP1;P1;durP2;ratioP2;P2;SDS_P1;SDS_P2;PMS_P1;PMS_P2;Temp;Humidity;BMP_temperature;BMP_pressure;BME280_temperature;BME280_humidity;BME280_pressure;Samples;Min_cycle;Max_cycle;Signal;HPM_P1;HPM_P2
2023/05/03 00:02:24;;;;;;;0.65;0.43;;;;;;;;;;4984859;28;20093;-75
2023/05/03 00:04:52;;;;;;;0.40;0.40;;;;;;;;;;4984952;28;20440;-76
2023/05/03 00:07:18;;;;;;;0.73;0.63;;;;;;;;;;4982820;28;20034;-76
2023/05/03 00:09:44;;;;;;;0.50;0.50;;;;;;;;;;4987818;28;20477;-76
2023/05/03 00:12:10;;;;;;;0.45;0.45;;;;;;;;;;4982404;28;20037;-76
2023/05/03 00:14:36;;;;;;;2.70;0.40;;;;;;;;;;4989571;28;20030;-75
2023/05/03 00:17:02;;;;;;;0.52;0.52;;;;;;;;;;4987156;28;20030;-76
2023/05/03 00:19:31;;;;;;;0.55;0.43;;;;;;;;;;4988218;28;20110;-76
2023/05/03 00:21:57;;;;;;;0.88;0.55;;;;;;;;;;4986375;28;20041;-75
2023/05/03 00:24:23;;;;;;;1.83;0.80;;;;;;;;;;4974892;28;20030;-77
2023/05/03 00:26:49;;;;;;;0.70;0.70;;;;;;;;;;4983292;28;20027;-76
2023/05/03 00:29:15;;;;;;;0.85;0.68;;;;;;;;;;4988185;28;20022;-75
2023/05/03 00:31:43;;;;;;;0.98;0.73;;;;;;;;;;4987438;28;20030;-75
2023/05/03 00:34:09;;;;;;;0.52;0.52;;;;;;;;;;4985050;28;20041;-76
2023/05/03 00:36:35;;;;;;;0.40;0.40;;;;;;;;;;4981907;28;20026;-76
2023/05/03 00:39:01;;;;;;;0.40;0.40;;;;;;;;;;4983025;28;20030;-76
2023/05/03 00:41:27;;;;;;;0.57;0.57;;;;;;;;;;4987218;28;20061;-76
2023/05/03 00:43:53;;;;;;;1.00;0.90;;;;;;;;;;4984275;28;20038;-76
2023/05/03 00:46:19;;;;;;;0.90;0.52;;;;;;;;;;4979979;28;20022;-76
2023/05/03 00:48:48;;;;;;;0.52;0.52;;;;;;;;;;4984965;28;20034;-76
2023/05/03 00:51:14;;;;;;;0.70;0.57;;;;;;;;;;4978620;28;20662;-76
2023/05/03 00:53:41;;;;;;;1.02;0.68;;;;;;;;;;4981681;28;20038;-76
2023/05/03 00:56:07;;;;;;;1.35;0.50;;;;;;;;;;4972976;28;20031;-75
2023/05/03 00:58:35;;;;;;;0.60;0.60;;;;;;;;;;4983838;28;20089;-76
2023/05/03 01:01:03;;;;;;;0.60;0.40;;;;;;;;;;4988965;28;20088;-76
2023/05/03 01:03:29;;;;;;;2.10;0.60;;;;;;;;;;4950020;28;1003789;-76
2023/05/03 01:06:06;;;;;;;0.82;0.70;;;;;;;;;;4989338;28;20076;-76
2023/05/03 01:08:42;;;;;;;0.88;0.65;;;;;;;;;;4983582;28;20057;-76
2023/05/03 01:11:12;;;;;;;0.50;0.50;;;;;;;;;;4985949;28;20054;-76
2023/05/03 01:14:03;;;;;;;3.28;1.30;;;;;;;;;;4980842;28;20030;-76
2023/05/03 01:16:39;;;;;;;0.63;0.63;;;;;;;;;;4980166;28;20045;-76
2023/05/03 01:19:13;;;;;;;1.05;0.68;;;;;;;;;;4981086;28;20037;-76
2023/05/03 01:21:42;;;;;;;0.60;0.60;;;;;;;;;;4978382;28;20038;-76
2023/05/03 01:24:13;;;;;;;1.58;0.80;;;;;;;;;;4984497;28;20629;-76
2023/05/03 01:26:39;;;;;;;1.10;0.77;;;;;;;;;;4986435;28;20472;-75
2023/05/03 01:29:05;;;;;;;0.50;0.50;;;;;;;;;;4984050;28;20050;-75
2023/05/03 01:31:47;;;;;;;0.75;0.38;;;;;;;;;;4972217;28;20038;-76
2023/05/03 01:34:18;;;;;;;1.42;0.70;;;;;;;;;;4982900;28;20030;-75
2023/05/03 01:36:44;;;;;;;2.05;0.70;;;;;;;;;;4975114;28;20042;-75
2023/05/03 01:39:13;;;;;;;1.08;0.60;;;;;;;;;;4979608;28;20110;-75
2023/05/03 01:41:41;;;;;;;2.15;0.60;;;;;;;;;;4986637;28;20088;-75
2023/05/03 01:44:08;;;;;;;0.40;0.40;;;;;;;;;;4976973;28;20441;-75
2023/05/03 01:46:34;;;;;;;1.33;0.50;;;;;;;;;;4986628;28;20022;-75
2023/05/03 01:49:00;;;;;;;0.93;0.80;;;;;;;;;;4980896;28;20536;-75
2023/05/03 01:51:26;;;;;;;1.63;0.82;;;;;;;;;;4985452;28;20041;-76
2023/05/03 01:53:52;;;;;;;0.85;0.60;;;;;;;;;;4987840;28;20113;-76
2023/05/03 01:56:18;;;;;;;3.00;0.70;;;;;;;;;;4981807;28;20157;-76
2023/05/03 01:58:44;;;;;;;0.90;0.52;;;;;;;;;;4978404;28;20026;-75
2023/05/03 02:01:10;;;;;;;0.50;0.50;;;;;;;;;;4975879;28;20030;-75
2023/05/03 02:03:39;;;;;;;1.13;0.50;;;;;;;;;;4987206;28;20046;-76
2023/05/03 02:06:05;;;;;;;0.57;0.57;;;;;;;;;;4976207;28;20030;-76
2023/05/03 02:08:34;;;;;;;0.50;0.45;;;;;;;;;;4985951;28;20046;-75
2023/05/03 02:11:00;;;;;;;0.63;0.57;;;;;;;;;;4980495;28;20035;-75
2023/05/03 02:13:26;;;;;;;0.80;0.60;;;;;;;;;;4986235;28;20449;-76
2023/05/03 02:15:52;;;;;;;1.05;0.70;;;;;;;;;;4989924;28;20745;-76
2023/05/03 02:18:19;;;;;;;0.50;0.50;;;;;;;;;;4983969;28;20488;-76
2023/05/03 02:20:45;;;;;;;0.45;0.45;;;;;;;;;;4984916;28;20042;-75
2023/05/03 02:23:11;;;;;;;1.88;0.63;;;;;;;;;;4986904;28;20027;-75
2023/05/03 02:25:37;;;;;;;0.40;0.40;;;;;;;;;;4986441;28;20042;-75
2023/05/03 02:28:03;;;;;;;1.67;0.70;;;;;;;;;;4973769;28;20023;-75
2023/05/03 02:30:29;;;;;;;0.50;0.40;;;;;;;;;;4985811;28;20103;-75
2023/05/03 02:32:55;;;;;;;0.60;0.60;;;;;;;;;;4973278;28;20031;-76
2023/05/03 02:35:21;;;;;;;1.92;0.60;;;;;;;;;;4974070;28;20362;-76
2023/05/03 02:37:47;;;;;;;0.40;0.40;;;;;;;;;;4983346;28;20031;-76
2023/05/03 02:40:14;;;;;;;2.10;0.57;;;;;;;;;;4985262;28;20049;-76
2023/05/03 02:42:40;;;;;;;7.75;0.63;;;;;;;;;;4984212;28;20418;-75
2023/05/03 02:45:06;;;;;;;0.98;0.63;;;;;;;;;;4976606;28;20026;-76
2023/05/03 02:47:32;;;;;;;0.73;0.65;;;;;;;;;;4984764;28;20038;-76
2023/05/03 02:49:58;;;;;;;1.08;0.70;;;;;;;;;;4985087;28;20027;-76
2023/05/03 02:52:24;;;;;;;0.52;0.40;;;;;;;;;;4979477;28;20481;-75
2023/05/03 02:54:50;;;;;;;0.70;0.60;;;;;;;;;;4985541;28;20118;-76
2023/05/03 02:57:16;;;;;;;0.32;0.32;;;;;;;;;;4982909;28;20117;-76
2023/05/03 02:59:42;;;;;;;0.90;0.50;;;;;;;;;;4986676;28;20042;-76
2023/05/03 03:02:08;;;;;;;1.05;0.50;;;;;;;;;;4986156;28;20022;-76
2023/05/03 03:04:43;;;;;;;0.70;0.50;;;;;;;;;;4986782;28;20797;-76
2023/05/03 03:07:09;;;;;;;0.35;0.30;;;;;;;;;;4976308;28;20031;-75
2023/05/03 03:09:35;;;;;;;0.73;0.55;;;;;;;;;;4984144;28;20401;-76
2023/05/03 03:12:04;;;;;;;0.52;0.52;;;;;;;;;;4976660;28;20689;-76
2023/05/03 03:14:30;;;;;;;0.50;0.50;;;;;;;;;;4991144;28;20118;-76
2023/05/03 03:16:56;;;;;;;0.75;0.70;;;;;;;;;;4977985;28;20465;-76
2023/05/03 03:19:22;;;;;;;0.93;0.68;;;;;;;;;;4985731;28;20027;-76
2023/05/03 03:21:48;;;;;;;0.43;0.35;;;;;;;;;;4985960;28;20041;-76
2023/05/03 03:24:14;;;;;;;2.35;0.70;;;;;;;;;;4985520;28;20033;-76
2023/05/03 03:26:40;;;;;;;0.88;0.60;;;;;;;;;;4976706;28;20045;-75
2023/05/03 03:29:08;;;;;;;0.70;0.70;;;;;;;;;;4986896;28;20638;-75
2023/05/03 03:31:35;;;;;;;0.77;0.60;;;;;;;;;;4986111;28;20038;-75
2023/05/03 03:34:00;;;;;;;0.50;0.50;;;;;;;;;;4990336;28;20606;-76
2023/05/03 03:36:27;;;;;;;1.08;0.70;;;;;;;;;;4983022;28;20038;-75
2023/05/03 03:38:53;;;;;;;2.25;0.70;;;;;;;;;;4987348;28;20037;-76
2023/05/03 03:41:20;;;;;;;0.32;0.32;;;;;;;;;;4982946;28;20030;-76
2023/05/03 03:43:45;;;;;;;0.47;0.47;;;;;;;;;;4977256;28;20019;-76
2023/05/03 03:46:11;;;;;;;1.75;0.22;;;;;;;;;;4972369;28;20045;-75
2023/05/03 03:48:38;;;;;;;0.65;0.30;;;;;;;;;;4984731;28;20118;-75
2023/05/03 03:51:04;;;;;;;0.55;0.52;;;;;;;;;;4982918;28;20105;-76
2023/05/03 03:53:30;;;;;;;0.45;0.45;;;;;;;;;;4984205;28;20117;-76
2023/05/03 03:55:56;;;;;;;0.60;0.60;;;;;;;;;;4990461;28;20030;-76
2023/05/03 03:58:22;;;;;;;1.40;0.70;;;;;;;;;;4986253;28;20022;-75
2023/05/03 04:00:48;;;;;;;1.55;0.70;;;;;;;;;;4981391;28;20180;-74
2023/05/03 04:03:15;;;;;;;0.70;0.70;;;;;;;;;;4979102;28;20058;-75
2023/05/03 04:05:41;;;;;;;0.60;0.40;;;;;;;;;;4984570;28;20041;-76
2023/05/03 04:08:07;;;;;;;0.52;0.50;;;;;;;;;;4989003;28;20022;-76
2023/05/03 04:10:33;;;;;;;0.52;0.52;;;;;;;;;;4988215;28;20750;-76
2023/05/03 04:12:59;;;;;;;0.52;0.50;;;;;;;;;;4988015;28;20421;-75
2023/05/03 04:15:25;;;;;;;0.50;0.50;;;;;;;;;;4985249;28;20201;-76
2023/05/03 04:17:51;;;;;;;0.65;0.60;;;;;;;;;;4987829;28;20209;-76
2023/05/03 04:20:18;;;;;;;0.70;0.70;;;;;;;;;;4985533;28;20577;-77
2023/05/03 04:22:44;;;;;;;0.77;0.60;;;;;;;;;;4985912;28;20034;-76
2023/05/03 04:25:13;;;;;;;3.35;0.60;;;;;;;;;;4981541;28;20041;-79
2023/05/03 04:27:39;;;;;;;0.90;0.73;;;;;;;;;;4976862;28;20033;-76
2023/05/03 04:30:06;;;;;;;0.47;0.43;;;;;;;;;;4986001;28;20077;-76
2023/05/03 04:32:36;;;;;;;0.93;0.60;;;;;;;;;;4986476;28;20022;-76
2023/05/03 04:35:09;;;;;;;2.72;0.77;;;;;;;;;;4985988;28;20358;-75
2023/05/03 04:37:39;;;;;;;0.38;0.38;;;;;;;;;;4983199;28;20081;-75
2023/05/03 04:40:07;;;;;;;0.98;0.65;;;;;;;;;;4983335;28;20454;-75
2023/05/03 04:42:34;;;;;;;1.25;0.73;;;;;;;;;;4980577;28;20035;-75
2023/05/03 04:45:01;;;;;;;0.60;0.60;;;;;;;;;;4975831;28;20486;-75
2023/05/03 04:47:27;;;;;;;0.73;0.55;;;;;;;;;;4973609;28;20621;-75
2023/05/03 04:49:53;;;;;;;0.82;0.68;;;;;;;;;;4982028;28;20057;-76
2023/05/03 04:52:20;;;;;;;1.15;0.65;;;;;;;;;;4980117;28;20566;-76
2023/05/03 04:54:46;;;;;;;1.90;0.73;;;;;;;;;;4986021;28;20022;-76
2023/05/03 04:57:12;;;;;;;2.45;1.08;;;;;;;;;;4981620;28;20061;-76
2023/05/03 04:59:38;;;;;;;1.50;1.08;;;;;;;;;;4980661;28;20461;-73
2023/05/03 05:02:04;;;;;;;0.68;0.68;;;;;;;;;;4985133;28;20033;-75
2023/05/03 05:04:30;;;;;;;0.85;0.57;;;;;;;;;;4984836;28;20429;-75
2023/05/03 05:06:58;;;;;;;0.80;0.68;;;;;;;;;;4980266;28;20231;-73
2023/05/03 05:09:25;;;;;;;1.10;0.70;;;;;;;;;;4969008;28;20026;-74
2023/05/03 05:11:51;;;;;;;2.22;0.60;;;;;;;;;;4980655;28;20177;-74
2023/05/03 05:14:17;;;;;;;0.63;0.50;;;;;;;;;;4990251;28;20042;-74
2023/05/03 05:16:43;;;;;;;4.75;0.70;;;;;;;;;;4984481;28;20118;-74
2023/05/03 05:19:09;;;;;;;1.40;0.60;;;;;;;;;;4970768;28;20031;-73
2023/05/03 05:21:35;;;;;;;0.70;0.60;;;;;;;;;;4980411;28;20177;-73
2023/05/03 05:24:01;;;;;;;1.33;0.80;;;;;;;;;;4969108;28;20533;-73
2023/05/03 05:26:27;;;;;;;0.45;0.40;;;;;;;;;;4969070;28;20093;-72
2023/05/03 05:28:57;;;;;;;3.05;1.15;;;;;;;;;;4986810;28;20054;-73
2023/05/03 05:31:23;;;;;;;2.75;0.70;;;;;;;;;;4987754;28;20041;-73
2023/05/03 05:33:49;;;;;;;0.35;0.35;;;;;;;;;;4976035;28;20026;-74
2023/05/03 05:36:15;;;;;;;0.98;0.73;;;;;;;;;;4983578;28;20516;-74
2023/05/03 05:38:41;;;;;;;2.30;0.75;;;;;;;;;;4976106;28;20462;-74
2023/05/03 05:41:07;;;;;;;2.92;0.85;;;;;;;;;;4978476;28;20451;-75
2023/05/03 05:43:33;;;;;;;0.70;0.60;;;;;;;;;;4983019;28;20022;-74
2023/05/03 05:45:59;;;;;;;0.77;0.55;;;;;;;;;;4980817;28;20029;-74
2023/05/03 05:48:25;;;;;;;0.85;0.63;;;;;;;;;;4984772;28;20465;-75
2023/05/03 05:50:51;;;;;;;1.60;0.60;;;;;;;;;;4979980;28;20084;-74
2023/05/03 05:53:16;;;;;;;3.30;0.70;;;;;;;;;;4987060;28;20038;-74
2023/05/03 05:55:42;;;;;;;0.75;0.75;;;;;;;;;;4986052;28;20335;-73
2023/05/03 05:58:10;;;;;;;0.50;0.50;;;;;;;;;;4985637;28;20026;-74
2023/05/03 06:00:36;;;;;;;1.02;0.80;;;;;;;;;;4980304;28;20670;-74
2023/05/03 06:03:02;;;;;;;0.77;0.60;;;;;;;;;;4977438;28;20034;-73
2023/05/03 06:05:28;;;;;;;2.35;0.60;;;;;;;;;;4972311;28;20034;-74
2023/05/03 06:07:54;;;;;;;1.52;0.52;;;;;;;;;;4984138;28;20019;-76
2023/05/03 06:10:20;;;;;;;1.33;0.55;;;;;;;;;;4982770;28;20398;-76
2023/05/03 06:12:47;;;;;;;0.70;0.70;;;;;;;;;;4985835;28;20436;-75
2023/05/03 06:15:13;;;;;;;0.60;0.60;;;;;;;;;;4990498;28;20033;-76
2023/05/03 06:17:39;;;;;;;0.88;0.65;;;;;;;;;;4985710;28;20026;-77
2023/05/03 06:20:05;;;;;;;3.05;0.90;;;;;;;;;;4984172;28;20027;-78
2023/05/03 06:22:31;;;;;;;0.88;0.70;;;;;;;;;;4972691;28;20031;-76
2023/05/03 06:24:57;;;;;;;0.85;0.47;;;;;;;;;;4983764;28;20033;-76
2023/05/03 06:27:23;;;;;;;1.40;0.77;;;;;;;;;;4985642;28;20027;-76
2023/05/03 06:29:50;;;;;;;3.45;0.93;;;;;;;;;;4983889;28;20022;-76
2023/05/03 06:32:16;;;;;;;2.47;0.68;;;;;;;;;;4984338;28;20109;-77
2023/05/03 06:34:42;;;;;;;0.55;0.40;;;;;;;;;;4976265;28;20031;-77
2023/05/03 06:37:10;;;;;;;1.02;0.43;;;;;;;;;;4975292;28;20031;-82
2023/05/03 06:39:36;;;;;;;2.50;0.85;;;;;;;;;;4968733;28;20019;-75
2023/05/03 06:42:02;;;;;;;0.57;0.55;;;;;;;;;;4978953;28;20162;-78
2023/05/03 06:44:28;;;;;;;1.38;0.60;;;;;;;;;;4981038;28;20054;-82
2023/05/03 06:46:54;;;;;;;1.55;0.98;;;;;;;;;;4976845;28;20109;-80
2023/05/03 06:49:21;;;;;;;1.55;0.75;;;;;;;;;;4986580;28;20156;-82
2023/05/03 06:51:47;;;;;;;0.52;0.52;;;;;;;;;;4986123;28;20217;-75
2023/05/03 06:54:14;;;;;;;0.80;0.70;;;;;;;;;;4978409;28;20054;-76
2023/05/03 06:56:40;;;;;;;0.98;0.75;;;;;;;;;;4978397;28;20030;-76
2023/05/03 06:59:07;;;;;;;0.75;0.70;;;;;;;;;;4979940;28;20395;-77
2023/05/03 07:01:33;;;;;;;2.80;0.70;;;;;;;;;;4979414;28;20034;-80
2023/05/03 07:03:59;;;;;;;2.22;0.80;;;;;;;;;;4981831;28;20071;-77
2023/05/03 07:06:25;;;;;;;0.93;0.60;;;;;;;;;;4975501;28;20114;-78
2023/05/03 07:08:52;;;;;;;1.45;0.57;;;;;;;;;;4987501;28;20193;-83
2023/05/03 07:11:22;;;;;;;0.98;0.70;;;;;;;;;;4989775;28;20030;-80
2023/05/03 07:13:49;;;;;;;0.28;0.28;;;;;;;;;;4987634;28;20056;-82
2023/05/03 07:16:15;;;;;;;0.95;0.57;;;;;;;;;;4995116;28;20109;-81
2023/05/03 07:18:41;;;;;;;0.88;0.70;;;;;;;;;;4989025;28;20097;-82
2023/05/03 07:21:07;;;;;;;2.40;1.13;;;;;;;;;;4989363;28;20038;-81
2023/05/03 07:23:39;;;;;;;0.40;0.32;;;;;;;;;;4987908;28;20018;-87
2023/05/03 07:26:05;;;;;;;;;;;;;;;;;;4989139;28;20048;-77
2023/05/03 07:28:31;;;;;;;0.90;0.45;;;;;;;;;;4990494;28;19941;-76
2023/05/03 07:30:57;;;;;;;1.48;0.70;;;;;;;;;;4988164;28;20088;-76
2023/05/03 07:33:23;;;;;;;1.38;0.50;;;;;;;;;;4982108;28;22567;-76
2023/05/03 07:35:49;;;;;;;0.32;0.32;;;;;;;;;;4989339;28;20034;-77
2023/05/03 07:38:15;;;;;;;0.43;0.43;;;;;;;;;;4985111;28;20022;-86
2023/05/03 07:40:41;;;;;;;0.85;0.40;;;;;;;;;;4983460;28;20628;-87
2023/05/03 07:43:11;;;;;;;0.50;0.50;;;;;;;;;;4976513;28;20153;-83
2023/05/03 07:45:39;;;;;;;0.50;0.50;;;;;;;;;;4984379;28;20046;-87
2023/05/03 07:48:05;;;;;;;0.93;0.45;;;;;;;;;;4978302;28;20030;-84
2023/05/03 07:50:31;;;;;;;0.50;0.50;;;;;;;;;;4979268;28;20026;-80
2023/05/03 07:53:00;;;;;;;0.47;0.43;;;;;;;;;;4989086;28;20026;-86
2023/05/03 07:55:28;;;;;;;0.50;0.50;;;;;;;;;;4985201;28;20030;-85
2023/05/03 07:57:58;;;;;;;0.43;0.43;;;;;;;;;;4977638;28;20393;-87
2023/05/03 08:00:24;;;;;;;0.63;0.63;;;;;;;;;;4983859;28;20392;-87
2023/05/03 08:02:50;;;;;;;1.20;0.82;;;;;;;;;;4982320;28;20026;-85
2023/05/03 08:05:39;;;;;;;0.93;0.73;;;;;;;;;;4984955;28;20444;-81
2023/05/03 08:08:05;;;;;;;0.63;0.63;;;;;;;;;;4971140;28;20075;-82
2023/05/03 08:10:36;;;;;;;0.50;0.50;;;;;;;;;;4982654;28;21075;-85
2023/05/03 08:13:02;;;;;;;1.27;0.52;;;;;;;;;;4980505;28;20470;-90
2023/05/03 08:15:28;;;;;;;2.75;1.13;;;;;;;;;;4985413;28;20254;-90
2023/05/03 08:18:00;;;;;;;0.68;0.52;;;;;;;;;;4989623;28;20658;-80
2023/05/03 08:20:26;;;;;;;0.80;0.60;;;;;;;;;;4983994;28;20034;-88
2023/05/03 08:23:00;;;;;;;0.25;0.25;;;;;;;;;;4985916;28;20043;-80
2023/05/03 08:25:27;;;;;;;0.60;0.60;;;;;;;;;;4980384;28;20204;-86
2023/05/03 08:27:54;;;;;;;0.50;0.50;;;;;;;;;;4983542;28;20551;-89
2023/05/03 08:30:24;;;;;;;0.70;0.65;;;;;;;;;;4970636;28;20038;-87
2023/05/03 08:32:50;;;;;;;2.25;0.60;;;;;;;;;;4982164;28;20027;-85
2023/05/03 08:35:16;;;;;;;3.13;0.50;;;;;;;;;;4985580;28;20033;-87
2023/05/03 08:37:42;;;;;;;0.95;0.50;;;;;;;;;;4972929;28;20019;-86
2023/05/03 08:40:13;;;;;;;1.70;0.60;;;;;;;;;;4976345;28;20030;-87
2023/05/03 08:42:49;;;;;;;1.33;0.60;;;;;;;;;;4986782;28;20038;-88
2023/05/03 08:45:16;;;;;;;0.75;0.70;;;;;;;;;;4978022;28;20034;-87
2023/05/03 08:47:46;;;;;;;1.38;0.60;;;;;;;;;;4983506;28;20557;-81
2023/05/03 08:50:12;;;;;;;1.15;0.80;;;;;;;;;;4985362;28;20057;-81
2023/05/03 08:52:45;;;;;;;0.55;0.52;;;;;;;;;;4970128;28;20091;-78
2023/05/03 08:55:11;;;;;;;0.70;0.50;;;;;;;;;;4982009;28;20019;-80
2023/05/03 08:57:40;;;;;;;0.70;0.65;;;;;;;;;;4963656;28;20494;-80
2023/05/03 09:00:10;;;;;;;0.88;0.50;;;;;;;;;;4970925;28;20034;-80
2023/05/03 09:02:38;;;;;;;2.65;0.90;;;;;;;;;;4984060;28;20023;-76
2023/05/03 09:05:05;;;;;;;0.68;0.52;;;;;;;;;;4969779;28;20576;-76
2023/05/03 09:07:31;;;;;;;2.90;0.70;;;;;;;;;;4977016;28;20027;-76
2023/05/03 09:10:00;;;;;;;2.83;1.10;;;;;;;;;;4974052;28;20031;-76
2023/05/03 09:12:34;;;;;;;0.40;0.40;;;;;;;;;;4969525;28;20780;-76
2023/05/03 09:15:00;;;;;;;0.50;0.50;;;;;;;;;;4980618;28;20042;-77
2023/05/03 09:17:26;;;;;;;0.77;0.50;;;;;;;;;;4987920;28;20041;-75
2023/05/03 09:19:57;;;;;;;0.73;0.40;;;;;;;;;;4988270;28;20709;-76
2023/05/03 09:22:25;;;;;;;0.75;0.50;;;;;;;;;;4978647;28;20026;-76
2023/05/03 09:24:55;;;;;;;0.85;0.70;;;;;;;;;;4978465;28;20043;-77
2023/05/03 09:27:22;;;;;;;0.80;0.60;;;;;;;;;;4969267;28;20061;-76
2023/05/03 09:29:49;;;;;;;1.80;0.80;;;;;;;;;;4968946;28;20022;-76
2023/05/03 09:32:15;;;;;;;0.40;0.40;;;;;;;;;;4981633;28;20030;-75
2023/05/03 09:34:42;;;;;;;0.93;0.47;;;;;;;;;;4988171;28;20049;-76
2023/05/03 09:37:08;;;;;;;0.65;0.52;;;;;;;;;;4988523;28;20092;-76
2023/05/03 09:39:35;;;;;;;0.75;0.73;;;;;;;;;;4988397;28;20500;-76
2023/05/03 09:42:15;;;;;;;0.40;0.40;;;;;;;;;;4977386;28;20142;-75
2023/05/03 09:44:50;;;;;;;0.40;0.40;;;;;;;;;;4988342;28;20625;-76
2023/05/03 09:47:16;;;;;;;0.38;0.35;;;;;;;;;;4988552;28;20030;-75
2023/05/03 09:49:45;;;;;;;0.70;0.70;;;;;;;;;;4988089;28;20026;-75
2023/05/03 09:52:12;;;;;;;0.50;0.50;;;;;;;;;;4984375;28;20034;-76
2023/05/03 09:54:38;;;;;;;1.15;0.75;;;;;;;;;;4968946;28;20030;-76
2023/05/03 09:57:04;;;;;;;0.88;0.70;;;;;;;;;;4976279;28;20460;-76
2023/05/03 09:59:31;;;;;;;1.38;0.90;;;;;;;;;;4988297;28;20034;-76
2023/05/03 10:01:58;;;;;;;3.35;0.55;;;;;;;;;;4986832;28;20049;-75
2023/05/03 10:04:26;;;;;;;1.15;0.63;;;;;;;;;;4986373;28;20121;-76
2023/05/03 10:06:53;;;;;;;1.42;0.70;;;;;;;;;;4987811;28;20026;-76
2023/05/03 10:09:23;;;;;;;0.65;0.52;;;;;;;;;;4987973;28;20023;-76
2023/05/03 10:11:53;;;;;;;0.98;0.77;;;;;;;;;;4987456;28;20482;-77
2023/05/03 10:14:20;;;;;;;0.60;0.60;;;;;;;;;;4988036;28;20122;-76
2023/05/03 10:16:48;;;;;;;1.95;1.20;;;;;;;;;;4989448;28;20474;-76
2023/05/03 10:19:17;;;;;;;1.73;0.88;;;;;;;;;;4987335;28;20108;-76
2023/05/03 10:21:54;;;;;;;1.90;1.05;;;;;;;;;;4986179;28;20031;-78
2023/05/03 10:24:20;;;;;;;0.65;0.52;;;;;;;;;;4980763;28;20267;-76
2023/05/03 10:26:47;;;;;;;2.17;0.75;;;;;;;;;;4974860;28;20035;-83
2023/05/03 10:29:32;;;;;;;0.50;0.50;;;;;;;;;;4973231;28;20417;-85
2023/05/03 10:31:58;;;;;;;0.75;0.50;;;;;;;;;;4985196;28;20085;-82
2023/05/03 10:34:24;;;;;;;0.95;0.70;;;;;;;;;;4988514;28;20481;-85
2023/05/03 10:36:52;;;;;;;0.93;0.90;;;;;;;;;;4988208;28;20033;-85
2023/05/03 10:39:18;;;;;;;0.82;0.47;;;;;;;;;;4988194;28;20030;-84
2023/05/03 10:42:06;;;;;;;1.00;0.82;;;;;;;;;;4985090;28;20026;-84
2023/05/03 10:44:52;;;;;;;1.05;0.63;;;;;;;;;;4988051;28;20022;-83
2023/05/03 10:47:19;;;;;;;0.63;0.57;;;;;;;;;;4986797;28;20088;-85
2023/05/03 10:49:45;;;;;;;2.22;0.77;;;;;;;;;;4988727;28;20096;-84
2023/05/03 10:52:30;;;;;;;0.50;0.50;;;;;;;;;;4986786;28;20038;-85
2023/05/03 10:54:56;;;;;;;1.00;0.65;;;;;;;;;;4982293;28;20022;-85
2023/05/03 10:57:26;;;;;;;0.70;0.70;;;;;;;;;;4986949;28;20033;-86
2023/05/03 10:59:53;;;;;;;0.75;0.75;;;;;;;;;;4988436;28;20026;-85
2023/05/03 11:02:23;;;;;;;11.27;1.25;;;;;;;;;;4987365;28;20572;-84
2023/05/03 11:04:54;;;;;;;1.20;0.68;;;;;;;;;;4987127;28;20086;-85
2023/05/03 11:07:21;;;;;;;1.10;0.90;;;;;;;;;;4989383;28;20105;-85
2023/05/03 11:09:47;;;;;;;0.65;0.50;;;;;;;;;;4986511;28;20113;-82
2023/05/03 11:12:34;;;;;;;0.65;0.63;;;;;;;;;;4988266;28;20030;-86
2023/05/03 11:15:00;;;;;;;1.65;0.90;;;;;;;;;;4987052;28;20528;-85
2023/05/03 11:17:28;;;;;;;0.88;0.88;;;;;;;;;;4986990;28;20034;-85
2023/05/03 11:19:53;;;;;;;6.60;0.60;;;;;;;;;;4970855;28;20042;-84
2023/05/03 11:22:20;;;;;;;1.10;0.60;;;;;;;;;;4988439;28;20022;-84
2023/05/03 11:24:46;;;;;;;1.90;0.50;;;;;;;;;;4989382;28;20052;-85
2023/05/03 11:27:13;;;;;;;0.70;0.50;;;;;;;;;;4990380;28;20019;-85
2023/05/03 11:29:42;;;;;;;0.47;0.47;;;;;;;;;;4989671;28;20027;-84
2023/05/03 11:32:09;;;;;;;0.70;0.60;;;;;;;;;;4988465;28;20027;-85
2023/05/03 11:34:35;;;;;;;0.95;0.63;;;;;;;;;;4987969;28;20030;-87
2023/05/03 11:37:03;;;;;;;0.65;0.60;;;;;;;;;;4991278;28;20035;-86
2023/05/03 11:39:29;;;;;;;1.15;0.93;;;;;;;;;;4986490;28;20317;-86
2023/05/03 11:42:02;;;;;;;0.85;0.80;;;;;;;;;;4990311;28;20037;-87
2023/05/03 11:44:28;;;;;;;1.88;0.90;;;;;;;;;;4976823;28;20093;-85
2023/05/03 11:46:54;;;;;;;1.77;0.73;;;;;;;;;;4981707;28;20030;-84
2023/05/03 11:49:20;;;;;;;2.30;0.70;;;;;;;;;;4983228;28;20050;-85
2023/05/03 11:52:09;;;;;;;0.60;0.60;;;;;;;;;;4987627;28;20034;-86
2023/05/03 11:54:36;;;;;;;0.40;0.40;;;;;;;;;;4969333;28;20061;-86
2023/05/03 11:57:15;;;;;;;0.93;0.70;;;;;;;;;;4975406;28;20030;-86
2023/05/03 11:59:41;;;;;;;1.05;0.80;;;;;;;;;;4978598;28;20030;-84
2023/05/03 12:02:08;;;;;;;0.90;0.82;;;;;;;;;;4974010;28;20042;-85
2023/05/03 12:04:39;;;;;;;4.25;1.08;;;;;;;;;;4970855;28;20512;-85
2023/05/03 12:07:06;;;;;;;2.28;0.80;;;;;;;;;;4976455;28;20022;-85
2023/05/03 12:09:32;;;;;;;0.68;0.68;;;;;;;;;;4980729;28;20022;-86
2023/05/03 12:11:58;;;;;;;0.95;0.60;;;;;;;;;;4994125;28;20096;-86
2023/05/03 12:14:24;;;;;;;3.97;0.80;;;;;;;;;;4988664;28;20037;-85
2023/05/03 12:16:52;;;;;;;1.48;0.70;;;;;;;;;;4994628;28;20034;-84
2023/05/03 12:19:28;;;;;;;0.57;0.47;;;;;;;;;;4990106;28;20087;-84
2023/05/03 12:21:55;;;;;;;3.50;0.82;;;;;;;;;;4998952;28;20035;-85
2023/05/03 12:24:22;;;;;;;0.75;0.63;;;;;;;;;;4997616;28;20041;-86
2023/05/03 12:26:51;;;;;;;3.25;1.15;;;;;;;;;;4990241;28;20029;-84
2023/05/03 12:29:18;;;;;;;0.70;0.60;;;;;;;;;;4999604;28;20038;-85
2023/05/03 12:31:45;;;;;;;1.25;0.80;;;;;;;;;;4987823;28;20773;-86
2023/05/03 12:34:14;;;;;;;0.98;0.50;;;;;;;;;;4982068;28;20027;-84
2023/05/03 12:36:40;;;;;;;0.75;0.75;;;;;;;;;;4991663;28;20030;-85
2023/05/03 12:39:07;;;;;;;0.40;0.40;;;;;;;;;;4999067;28;20095;-85
2023/05/03 12:41:33;;;;;;;1.17;1.02;;;;;;;;;;4987258;28;20028;-86
2023/05/03 12:44:00;;;;;;;1.60;0.70;;;;;;;;;;4994082;28;20022;-83
2023/05/03 12:46:26;;;;;;;0.52;0.43;;;;;;;;;;4986633;28;20053;-86
2023/05/03 12:48:53;;;;;;;1.42;0.60;;;;;;;;;;4981416;28;20019;-86
2023/05/03 12:51:19;;;;;;;0.70;0.70;;;;;;;;;;4978025;28;20064;-84
2023/05/03 12:53:49;;;;;;;2.28;0.65;;;;;;;;;;4979558;28;20141;-85
2023/05/03 12:56:16;;;;;;;1.00;0.60;;;;;;;;;;4971472;28;20011;-85
2023/05/03 12:59:03;;;;;;;0.45;0.45;;;;;;;;;;4972373;28;20370;-85
2023/05/03 13:01:28;;;;;;;1.20;0.65;;;;;;;;;;4979073;28;20035;-85
2023/05/03 13:04:01;;;;;;;0.82;0.60;;;;;;;;;;4975301;28;20118;-84
2023/05/03 13:06:28;;;;;;;0.60;0.50;;;;;;;;;;4972584;28;20018;-85
2023/05/03 13:09:11;;;;;;;1.65;0.90;;;;;;;;;;4977051;28;20023;-87
2023/05/03 13:11:38;;;;;;;0.50;0.40;;;;;;;;;;4976410;28;20034;-86
2023/05/03 13:14:04;;;;;;;0.65;0.65;;;;;;;;;;4975077;28;20034;-86
2023/05/03 13:16:31;;;;;;;0.77;0.77;;;;;;;;;;4977404;28;20030;-86
2023/05/03 13:18:57;;;;;;;0.50;0.50;;;;;;;;;;4977870;28;20448;-90
2023/05/03 13:21:23;;;;;;;1.65;0.60;;;;;;;;;;4978180;28;20025;-80
2023/05/03 13:23:49;;;;;;;0.70;0.60;;;;;;;;;;4975831;28;20043;-83
2023/05/03 13:26:31;;;;;;;0.82;0.57;;;;;;;;;;4974186;28;20026;-84
2023/05/03 13:29:00;;;;;;;1.25;0.68;;;;;;;;;;4972265;28;20022;-84
2023/05/03 13:31:45;;;;;;;0.50;0.50;;;;;;;;;;4985075;28;20437;-87
2023/05/03 13:34:11;;;;;;;0.60;0.60;;;;;;;;;;4970451;28;20045;-85
2023/05/03 13:36:37;;;;;;;0.95;0.43;;;;;;;;;;4967845;28;20030;-84
2023/05/03 13:39:05;;;;;;;0.40;0.40;;;;;;;;;;4970975;28;20504;-84
2023/05/03 13:41:37;;;;;;;0.52;0.52;;;;;;;;;;4979533;28;20022;-84
2023/05/03 13:44:11;;;;;;;2.03;0.68;;;;;;;;;;4975069;28;20026;-84
2023/05/03 13:46:43;;;;;;;0.47;0.43;;;;;;;;;;4970982;28;20031;-85
2023/05/03 13:49:09;;;;;;;0.90;0.65;;;;;;;;;;4974940;28;20019;-84
2023/05/03 13:51:36;;;;;;;2.53;0.90;;;;;;;;;;4977235;28;20160;-83
2023/05/03 13:54:02;;;;;;;1.50;0.50;;;;;;;;;;4971616;28;20481;-84
2023/05/03 13:56:28;;;;;;;1.10;0.73;;;;;;;;;;4971077;28;20030;-83
2023/05/03 13:58:55;;;;;;;1.92;0.70;;;;;;;;;;4971071;28;20030;-84
2023/05/03 14:01:25;;;;;;;0.40;0.40;;;;;;;;;;4973242;28;20042;-80
2023/05/03 14:03:51;;;;;;;0.40;0.40;;;;;;;;;;4978480;28;20046;-79
2023/05/03 14:06:21;;;;;;;0.57;0.57;;;;;;;;;;4976402;28;20547;-90
2023/05/03 14:08:47;;;;;;;0.68;0.68;;;;;;;;;;4980823;28;20113;-81
2023/05/03 14:11:17;;;;;;;1.63;0.52;;;;;;;;;;4975065;28;20046;-82
2023/05/03 14:13:43;;;;;;;0.57;0.57;;;;;;;;;;4979957;28;20026;-82
2023/05/03 14:16:35;;;;;;;0.50;0.50;;;;;;;;;;4978373;28;20537;-79
2023/05/03 14:19:02;;;;;;;1.08;0.70;;;;;;;;;;4966467;28;20057;-89
2023/05/03 14:21:28;;;;;;;1.00;0.82;;;;;;;;;;4972889;28;20035;-83
2023/05/03 14:23:54;;;;;;;0.50;0.50;;;;;;;;;;4972933;28;20026;-83
2023/05/03 14:26:20;;;;;;;2.50;0.43;;;;;;;;;;4982681;28;20034;-77
2023/05/03 14:28:46;;;;;;;3.20;0.65;;;;;;;;;;4971754;28;20084;-81
2023/05/03 14:31:15;;;;;;;1.20;0.60;;;;;;;;;;4973996;28;20029;-76
2023/05/03 14:33:41;;;;;;;0.43;0.43;;;;;;;;;;4978687;28;20481;-86
2023/05/03 14:36:08;;;;;;;1.15;0.70;;;;;;;;;;4970552;28;20461;-76
2023/05/03 14:38:34;;;;;;;0.43;0.43;;;;;;;;;;4968408;28;20023;-76
2023/05/03 14:41:00;;;;;;;0.80;0.60;;;;;;;;;;4972902;28;20476;-77
2023/05/03 14:43:27;;;;;;;0.98;0.60;;;;;;;;;;4976060;28;20569;-78
2023/05/03 14:45:53;;;;;;;0.47;0.47;;;;;;;;;;4967865;28;20086;-83
2023/05/03 14:48:19;;;;;;;0.77;0.75;;;;;;;;;;4971480;28;20030;-85